Terminal Aerodrome Forecast
Issued by NWS

Home | Current Version | Previous Version | Graphics & Text | Print | Product List | Glossary On
Versions: 1 2 3 4 5 6 7 8 9 10 11 12 13 14 15 16 17 18 19 20
000
FTUS42 KMHX 021731
TAFOAJ
TAF
KOAJ 021731Z 0218/0318 21007KT P6SM VCTS BKN035CB
      TEMPO 0218/0220 VRB20KT 3SM TSRA BKN020CB
     FM030100 VRB03KT P6SM VCSH SCT025 OVC050
     FM030900 VRB03KT 4SM BR VCSH OVC030
     FM031300 VRB05KT P6SM VCTS SCT020 BKN040CB
      AMD LTD TO CLD VIS AND WIND=

USA.gov is the U.S. government's official web portal to all federal, state and local government web resources and services.